Time;durP1;ratioP1;P1;durP2;ratioP2;P2;SDS_P1;SDS_P2;PMS_P1;PMS_P2;Temp;Humidity;BMP_temperature;BMP_pressure;BME280_temperature;BME280_humidity;BME280_pressure;Samples;Min_cycle;Max_cycle;Signal;HPM_P1;HPM_P2
2021/07/28 00:00:03;;;;;;;10.00;7.07;;;19.00;99.90;;;;;;2106387;28;20024;-70
2021/07/28 00:01:04;;;;;;;6.28;5.68;;;18.90;99.90;;;;;;2106187;28;20462;-70
2021/07/28 00:02:05;;;;;;;6.75;6.05;;;18.90;99.90;;;;;;2106489;28;20024;-70
2021/07/28 00:03:06;;;;;;;13.00;6.95;;;18.90;99.90;;;;;;2106165;28;20035;-70
2021/07/28 00:04:06;;;;;;;11.00;6.10;;;18.90;99.90;;;;;;2106181;28;20062;-70
2021/07/28 00:05:08;;;;;;;7.75;5.55;;;18.90;99.90;;;;;;2106526;28;20028;-69
2021/07/28 00:06:08;;;;;;;6.68;5.88;;;18.90;99.90;;;;;;2106578;28;20020;-70
2021/07/28 00:07:09;;;;;;;8.75;6.57;;;18.90;99.90;;;;;;2107763;28;20032;-70
2021/07/28 00:08:10;;;;;;;8.25;6.28;;;18.90;99.90;;;;;;2114371;28;20494;-70
2021/07/28 00:09:11;;;;;;;9.30;5.82;;;18.90;99.90;;;;;;2115129;28;20386;-70
2021/07/28 00:10:11;;;;;;;9.02;6.55;;;18.90;99.90;;;;;;2114764;28;20106;-70
2021/07/28 00:11:13;;;;;;;7.03;5.75;;;18.90;99.90;;;;;;2114212;28;20019;-70
2021/07/28 00:12:13;;;;;;;6.70;6.07;;;18.90;99.90;;;;;;2113856;28;20098;-70
2021/07/28 00:13:14;;;;;;;6.38;5.60;;;18.90;99.90;;;;;;2114514;28;20468;-70
2021/07/28 00:14:15;;;;;;;7.30;6.60;;;18.90;99.90;;;;;;2114643;28;20470;-70
2021/07/28 00:15:16;;;;;;;7.05;5.60;;;18.90;99.90;;;;;;2114817;28;20106;-70
2021/07/28 00:16:17;;;;;;;6.63;5.93;;;18.90;99.90;;;;;;2114863;28;20035;-70
2021/07/28 00:17:17;;;;;;;9.57;6.60;;;18.90;99.90;;;;;;2111420;28;20015;-70
2021/07/28 00:18:34;;;;;;;7.80;5.78;;;18.90;99.90;;;;;;2105451;28;20095;-70
2021/07/28 00:19:51;;;;;;;7.22;6.53;;;18.80;99.90;;;;;;2098249;28;20021;-70
2021/07/28 00:23:43;;;;;;;7.20;6.07;;;18.80;99.90;;;;;;2114652;28;20032;-70
2021/07/28 00:24:44;;;;;;;6.70;6.00;;;18.80;99.90;;;;;;2114658;28;20020;-70
2021/07/28 00:25:47;;;;;;;6.40;5.90;;;18.80;99.90;;;;;;2114968;28;20529;-70
2021/07/28 00:26:48;;;;;;;10.93;6.22;;;18.80;99.90;;;;;;2114499;27;20034;-70
2021/07/28 00:27:51;;;;;;;6.07;5.47;;;18.80;99.90;;;;;;2114884;28;20034;-70
2021/07/28 00:28:52;;;;;;;9.02;5.70;;;18.80;99.90;;;;;;2114472;28;20028;-70
2021/07/28 00:29:53;;;;;;;7.55;6.38;;;18.80;99.90;;;;;;2114798;28;20408;-70
2021/07/28 00:30:53;;;;;;;7.25;6.10;;;18.70;99.90;;;;;;2114687;28;20020;-69
2021/07/28 00:31:54;;;;;;;6.20;5.57;;;18.70;99.90;;;;;;2114501;28;20027;-70
2021/07/28 00:32:54;;;;;;;7.18;5.88;;;18.80;99.90;;;;;;2113898;28;20099;-70
2021/07/28 00:33:55;;;;;;;7.65;6.22;;;18.80;99.90;;;;;;2103748;28;20020;-70
2021/07/28 00:34:55;;;;;;;6.80;5.65;;;18.80;99.90;;;;;;2106131;28;20024;-70
2021/07/28 00:35:56;;;;;;;8.48;5.95;;;18.80;99.90;;;;;;2106307;28;20383;-70
2021/07/28 00:36:56;;;;;;;6.90;6.28;;;18.80;99.90;;;;;;2106219;28;20086;-70
2021/07/28 00:38:07;;;;;;;8.23;6.53;;;18.80;99.90;;;;;;2106094;28;20028;-70
2021/07/28 00:39:07;;;;;;;;;;;18.80;99.90;;;;;;2106683;28;20044;-70
2021/07/28 00:40:08;;;;;;;7.05;5.63;;;18.70;99.90;;;;;;2106283;28;19911;-70
2021/07/28 00:41:09;;;;;;;7.13;6.07;;;18.70;99.90;;;;;;2106269;28;20374;-70
2021/07/28 00:42:09;;;;;;;7.85;6.50;;;18.70;99.90;;;;;;2106097;28;20024;-70
2021/07/28 00:43:16;;;;;;;7.50;5.70;;;18.80;99.90;;;;;;2105730;28;20031;-70
2021/07/28 00:44:17;;;;;;;8.15;5.90;;;18.80;99.90;;;;;;2106292;28;20031;-70
2021/07/28 00:45:17;;;;;;;6.85;6.00;;;18.80;99.90;;;;;;2106006;28;20063;-70
2021/07/28 00:46:18;;;;;;;10.38;6.25;;;18.80;99.90;;;;;;2106037;28;20027;-70
2021/07/28 00:47:18;;;;;;;8.07;6.20;;;18.80;99.90;;;;;;2106152;28;20039;-70
2021/07/28 00:48:19;;;;;;;6.93;6.07;;;18.80;99.90;;;;;;2106012;28;20022;-70
2021/07/28 00:49:19;;;;;;;9.90;6.68;;;18.80;99.90;;;;;;2106276;28;20543;-70
2021/07/28 00:50:20;;;;;;;6.82;6.20;;;18.80;99.90;;;;;;2097121;28;20357;-70
2021/07/28 00:51:21;;;;;;;6.93;6.10;;;18.80;99.90;;;;;;2096656;28;20033;-70
2021/07/28 00:52:21;;;;;;;6.80;6.10;;;18.80;99.90;;;;;;2106095;28;20129;-70
2021/07/28 00:53:23;;;;;;;6.32;5.72;;;18.80;99.90;;;;;;2105454;28;20546;-70
2021/07/28 00:54:24;;;;;;;7.15;6.45;;;18.80;99.90;;;;;;2106183;28;20540;-70
2021/07/28 00:55:24;;;;;;;15.15;6.32;;;18.80;99.90;;;;;;2106080;28;20418;-70
2021/07/28 00:56:26;;;;;;;7.15;6.45;;;18.80;99.90;;;;;;2106306;28;20383;-70
2021/07/28 00:57:28;;;;;;;12.32;6.38;;;18.90;99.90;;;;;;2106009;28;20028;-70
2021/07/28 00:58:30;;;;;;;7.45;6.75;;;18.80;99.90;;;;;;2106194;28;20087;-70
2021/07/28 00:59:31;;;;;;;6.30;5.70;;;18.90;99.90;;;;;;2105832;28;20107;-70
2021/07/28 01:00:31;;;;;;;8.80;5.55;;;18.80;99.90;;;;;;2106481;28;20024;-70
2021/07/28 01:01:32;;;;;;;8.02;7.15;;;18.80;99.90;;;;;;2105698;28;20052;-70
2021/07/28 01:02:33;;;;;;;10.93;6.25;;;18.90;99.90;;;;;;2108590;28;20034;-69
2021/07/28 01:03:33;;;;;;;7.80;6.75;;;18.80;99.90;;;;;;2113348;28;20111;-70
2021/07/28 01:04:34;;;;;;;7.05;6.45;;;18.90;99.90;;;;;;2114374;28;20553;-70
2021/07/28 01:05:35;;;;;;;7.25;6.28;;;18.90;99.90;;;;;;2114433;28;20027;-70
2021/07/28 01:06:36;;;;;;;9.70;6.03;;;18.90;99.90;;;;;;2114330;28;20032;-70
2021/07/28 01:07:36;;;;;;;9.05;6.82;;;18.90;99.90;;;;;;2114515;28;20042;-70
2021/07/28 01:08:37;;;;;;;6.65;6.10;;;18.90;99.90;;;;;;2114283;28;20020;-70
2021/07/28 01:09:37;;;;;;;6.65;6.05;;;18.90;99.90;;;;;;2114503;28;20027;-70
2021/07/28 01:10:38;;;;;;;9.45;6.75;;;18.90;99.90;;;;;;2114361;28;20062;-70
2021/07/28 01:11:38;;;;;;;7.13;6.40;;;18.90;99.90;;;;;;2114478;28;20024;-70
2021/07/28 01:12:44;;;;;;;8.30;5.63;;;18.90;99.90;;;;;;2112871;28;20023;-70
2021/07/28 01:13:44;;;;;;;8.30;6.20;;;18.90;99.90;;;;;;2113623;28;20016;-70
2021/07/28 01:14:45;;;;;;;8.88;6.20;;;18.90;99.90;;;;;;2114361;28;20042;-70
2021/07/28 01:15:47;;;;;;;7.05;5.53;;;18.90;99.90;;;;;;2109249;28;21082;-70
2021/07/28 01:16:47;;;;;;;8.05;6.05;;;18.90;99.90;;;;;;2105935;28;20016;-70
2021/07/28 01:17:50;;;;;;;11.02;6.40;;;18.90;99.90;;;;;;2106109;28;20107;-70
2021/07/28 01:18:51;;;;;;;7.93;6.40;;;18.90;99.90;;;;;;2104008;28;20027;-70
2021/07/28 01:20:00;;;;;;;6.95;6.22;;;18.90;99.90;;;;;;2109081;28;20028;-69
2021/07/28 01:21:01;;;;;;;10.85;6.43;;;18.90;99.90;;;;;;2112835;28;20016;-69
2021/07/28 01:22:02;;;;;;;8.95;6.38;;;18.90;99.90;;;;;;2106690;28;20024;-70
2021/07/28 01:23:18;;;;;;;7.57;6.32;;;18.90;99.90;;;;;;2112526;28;20076;-70
2021/07/28 01:24:20;;;;;;;7.57;6.20;;;18.90;99.90;;;;;;2099507;28;20464;-70
2021/07/28 01:25:20;;;;;;;7.53;6.30;;;18.90;99.90;;;;;;2111875;28;20474;-70
2021/07/28 01:26:21;;;;;;;9.05;5.80;;;18.90;99.90;;;;;;2112901;28;20454;-69
2021/07/28 01:27:22;;;;;;;8.00;6.40;;;18.90;99.90;;;;;;2105776;28;20031;-70
2021/07/28 01:28:25;;;;;;;6.20;5.60;;;18.90;99.90;;;;;;2106114;28;20027;-70
2021/07/28 01:29:26;;;;;;;9.90;6.30;;;18.90;99.90;;;;;;2105390;28;20123;-70
2021/07/28 01:30:27;;;;;;;11.40;6.20;;;18.90;99.90;;;;;;2111489;28;20019;-70
2021/07/28 01:31:27;;;;;;;8.20;6.10;;;18.90;99.90;;;;;;2114083;28;20039;-70
2021/07/28 01:32:28;;;;;;;6.43;5.80;;;18.90;99.90;;;;;;2114549;28;20033;-70
2021/07/28 01:33:31;;;;;;;6.85;6.15;;;18.90;99.90;;;;;;2103313;28;20017;-70
2021/07/28 01:34:33;;;;;;;6.32;5.55;;;18.90;99.90;;;;;;2096699;28;20078;-70
2021/07/28 01:35:36;;;;;;;9.90;5.95;;;18.90;99.90;;;;;;2105104;28;20021;-70
2021/07/28 01:36:39;;;;;;;6.95;6.22;;;18.90;99.90;;;;;;2105493;28;20028;-70
2021/07/28 01:37:42;;;;;;;8.63;6.53;;;18.90;99.90;;;;;;2104974;28;20566;-70
2021/07/28 01:38:43;;;;;;;9.32;6.45;;;18.90;99.90;;;;;;2105287;28;20036;-70
2021/07/28 01:39:43;;;;;;;8.00;6.28;;;18.90;99.90;;;;;;2105612;28;20028;-70
2021/07/28 01:40:44;;;;;;;7.10;5.90;;;19.00;99.90;;;;;;2103238;28;20071;-70
2021/07/28 01:41:57;;;;;;;7.40;6.65;;;19.00;99.90;;;;;;2101701;28;20024;-70
2021/07/28 01:42:58;;;;;;;9.77;6.38;;;19.00;99.90;;;;;;2107796;28;20507;-70
2021/07/28 01:43:59;;;;;;;7.72;5.97;;;19.00;99.90;;;;;;2107658;28;20726;-70
2021/07/28 01:44:59;;;;;;;8.15;6.10;;;19.00;99.90;;;;;;2106628;28;20062;-70
2021/07/28 01:46:02;;;;;;;7.38;6.15;;;19.00;99.90;;;;;;2107309;28;20048;-70
2021/07/28 01:47:03;;;;;;;7.05;6.35;;;19.00;99.90;;;;;;2107492;28;20023;-70
2021/07/28 01:48:03;;;;;;;7.40;5.82;;;19.00;99.90;;;;;;2107536;28;20031;-70
2021/07/28 01:49:04;;;;;;;7.45;6.55;;;19.00;99.90;;;;;;2102884;28;20031;-70
2021/07/28 01:50:07;;;;;;;8.85;6.22;;;19.00;99.90;;;;;;2106480;28;20044;-70
2021/07/28 01:51:07;;;;;;;8.07;5.90;;;19.00;99.90;;;;;;2106521;28;20024;-70
2021/07/28 01:52:08;;;;;;;7.97;5.93;;;19.00;99.90;;;;;;2107161;28;20032;-70
2021/07/28 01:53:08;;;;;;;7.15;6.43;;;19.00;99.90;;;;;;2106944;28;20052;-70
2021/07/28 01:54:09;;;;;;;7.32;5.88;;;19.00;99.90;;;;;;2106854;28;20042;-70
2021/07/28 01:55:11;;;;;;;8.27;6.28;;;19.00;99.90;;;;;;2106775;28;20479;-70
2021/07/28 01:56:12;;;;;;;6.57;5.88;;;19.00;99.90;;;;;;2107637;28;20443;-70
2021/07/28 01:57:13;;;;;;;9.43;6.40;;;19.00;99.90;;;;;;2107237;28;20127;-70
2021/07/28 01:58:14;;;;;;;7.25;5.85;;;19.00;99.90;;;;;;2107283;28;20012;-70
2021/07/28 01:59:15;;;;;;;7.65;6.20;;;19.00;99.90;;;;;;2107160;28;20157;-70
2021/07/28 02:00:16;;;;;;;6.72;5.95;;;19.00;99.90;;;;;;2107007;28;20052;-70
2021/07/28 02:01:16;;;;;;;7.47;5.38;;;19.10;99.90;;;;;;2106790;28;20056;-70
2021/07/28 02:02:17;;;;;;;6.68;5.93;;;19.10;99.90;;;;;;2107269;28;20141;-70
2021/07/28 02:03:17;;;;;;;8.35;5.35;;;19.10;99.90;;;;;;2106998;28;20036;-70
2021/07/28 02:04:18;;;;;;;12.23;6.15;;;19.00;99.90;;;;;;2107531;28;20363;-70
2021/07/28 02:05:19;;;;;;;6.68;5.93;;;19.10;99.90;;;;;;2107269;28;20047;-70
2021/07/28 02:06:19;;;;;;;8.57;6.20;;;19.10;99.90;;;;;;2107461;28;20031;-70
2021/07/28 02:07:20;;;;;;;10.32;6.25;;;19.10;99.90;;;;;;2109743;28;20028;-70
2021/07/28 02:08:21;;;;;;;8.38;6.82;;;19.10;99.90;;;;;;2115824;28;20027;-70
2021/07/28 02:09:21;;;;;;;8.60;6.20;;;19.00;99.90;;;;;;2113421;28;20031;-70
2021/07/28 02:10:22;;;;;;;7.65;5.97;;;19.10;99.90;;;;;;2107362;28;20028;-70
2021/07/28 02:11:22;;;;;;;6.25;5.75;;;19.00;99.90;;;;;;2115878;28;20402;-70
2021/07/28 02:12:23;;;;;;;8.20;6.05;;;19.10;99.90;;;;;;2115433;28;20024;-70
2021/07/28 02:13:24;;;;;;;7.65;6.43;;;19.00;99.90;;;;;;2115623;28;20028;-70
2021/07/28 02:14:25;;;;;;;10.45;6.03;;;19.10;99.90;;;;;;2115627;28;20023;-70
2021/07/28 02:15:26;;;;;;;10.65;6.07;;;19.10;99.90;;;;;;2115896;28;20016;-70
2021/07/28 02:16:27;;;;;;;7.18;6.18;;;19.00;99.90;;;;;;2115679;28;20051;-70
2021/07/28 02:17:27;;;;;;;6.82;6.20;;;19.10;99.90;;;;;;2115587;28;20030;-69
2021/07/28 02:18:28;;;;;;;7.53;6.18;;;19.10;99.90;;;;;;2115651;27;20372;-70
2021/07/28 02:19:28;;;;;;;7.18;5.95;;;19.00;99.90;;;;;;2113044;28;20400;-70
2021/07/28 02:20:29;;;;;;;8.05;6.43;;;19.10;99.90;;;;;;2106626;28;20028;-70
2021/07/28 02:21:30;;;;;;;6.78;5.97;;;19.00;99.90;;;;;;2106524;28;20028;-70
2021/07/28 02:22:30;;;;;;;9.40;7.20;;;19.00;99.90;;;;;;2106579;28;20028;-70
2021/07/28 02:23:31;;;;;;;8.65;6.18;;;19.00;99.90;;;;;;2106839;28;20099;-70
2021/07/28 02:24:32;;;;;;;12.48;6.88;;;19.00;99.90;;;;;;2106854;28;20024;-70
2021/07/28 02:25:32;;;;;;;7.75;6.15;;;19.00;99.90;;;;;;2107085;28;20036;-70
2021/07/28 02:26:33;;;;;;;7.25;6.55;;;18.90;99.90;;;;;;2107126;28;20172;-70
2021/07/28 02:27:33;;;;;;;7.32;6.43;;;19.00;99.90;;;;;;2107480;28;20107;-70
2021/07/28 02:28:34;;;;;;;8.38;5.88;;;19.00;99.90;;;;;;2107128;28;20383;-70
2021/07/28 02:29:35;;;;;;;10.13;6.82;;;19.00;99.90;;;;;;2107100;28;20049;-70
2021/07/28 02:30:36;;;;;;;7.22;6.55;;;19.00;99.90;;;;;;2114641;28;20020;-70
2021/07/28 02:31:37;;;;;;;8.57;6.50;;;19.00;99.90;;;;;;2115337;28;20020;-70
2021/07/28 02:32:38;;;;;;;7.20;6.30;;;19.00;99.90;;;;;;2114964;28;20120;-70
2021/07/28 02:33:39;;;;;;;7.15;6.45;;;19.00;99.90;;;;;;2103237;28;20020;-70
2021/07/28 02:34:39;;;;;;;7.28;6.57;;;18.90;99.90;;;;;;2099494;28;20051;-70
2021/07/28 02:35:40;;;;;;;7.60;6.68;;;19.00;99.90;;;;;;2107307;28;20024;-70
2021/07/28 02:36:40;;;;;;;10.00;6.40;;;19.00;99.90;;;;;;2107037;28;20059;-70
2021/07/28 02:37:42;;;;;;;9.00;6.97;;;18.90;99.90;;;;;;2107481;28;20024;-70
2021/07/28 02:38:43;;;;;;;7.90;5.88;;;18.90;99.90;;;;;;2106958;28;20012;-70
2021/07/28 02:39:44;;;;;;;9.20;7.03;;;18.90;99.90;;;;;;2109835;28;20039;-70
2021/07/28 02:40:44;;;;;;;10.20;6.60;;;18.90;99.90;;;;;;2115556;28;20032;-70
2021/07/28 02:41:45;;;;;;;10.50;7.13;;;18.90;99.90;;;;;;2115421;28;20636;-70
2021/07/28 02:42:46;;;;;;;13.30;6.97;;;18.90;99.90;;;;;;2115045;28;20023;-70
2021/07/28 02:43:47;;;;;;;7.85;6.22;;;18.90;99.90;;;;;;2115301;28;20032;-70
2021/07/28 02:44:47;;;;;;;10.07;6.85;;;18.90;99.90;;;;;;2115269;28;20019;-70
2021/07/28 02:45:48;;;;;;;13.02;7.22;;;18.90;99.90;;;;;;2115772;28;20065;-70
2021/07/28 02:46:48;;;;;;;10.15;7.68;;;18.90;99.90;;;;;;2115408;28;20371;-70
2021/07/28 02:47:49;;;;;;;8.48;6.40;;;18.90;99.90;;;;;;2115477;28;20030;-70
2021/07/28 02:48:49;;;;;;;8.13;6.50;;;18.90;99.90;;;;;;2115822;28;20031;-70
2021/07/28 02:49:50;;;;;;;7.55;6.75;;;18.80;99.90;;;;;;2110968;28;20488;-70
2021/07/28 02:50:50;;;;;;;7.50;6.38;;;18.90;99.90;;;;;;2106906;28;20051;-70
2021/07/28 02:51:51;;;;;;;10.45;6.88;;;18.90;99.90;;;;;;2106547;28;20024;-70
2021/07/28 02:52:51;;;;;;;7.82;6.38;;;18.80;99.90;;;;;;2106496;28;20055;-69
2021/07/28 02:53:52;;;;;;;8.85;6.35;;;18.90;99.90;;;;;;2106761;28;20494;-70
2021/07/28 02:54:52;;;;;;;10.63;6.63;;;18.80;99.90;;;;;;2106954;28;20066;-70
2021/07/28 02:55:53;;;;;;;9.35;6.53;;;18.80;99.90;;;;;;2106982;28;20047;-70
2021/07/28 02:56:53;;;;;;;7.32;6.60;;;18.90;99.90;;;;;;2106007;28;20024;-70
2021/07/28 02:57:54;;;;;;;7.25;6.53;;;18.90;99.90;;;;;;2106917;28;20022;-70
2021/07/28 02:58:55;;;;;;;11.90;7.22;;;18.90;99.90;;;;;;2107212;28;20020;-70
2021/07/28 02:59:55;;;;;;;11.73;6.65;;;18.90;99.90;;;;;;2106696;28;20501;-70
2021/07/28 03:00:56;;;;;;;10.85;7.07;;;18.90;99.90;;;;;;2110647;28;20042;-69
2021/07/28 03:01:57;;;;;;;8.43;6.90;;;18.90;99.90;;;;;;2115264;28;20057;-69
2021/07/28 03:02:57;;;;;;;7.97;6.80;;;18.90;99.90;;;;;;2114922;28;20382;-69
2021/07/28 03:03:58;;;;;;;11.07;6.65;;;18.90;99.90;;;;;;2115252;28;20114;-69
2021/07/28 03:04:58;;;;;;;9.13;6.60;;;18.90;99.90;;;;;;2115450;28;20030;-69
2021/07/28 03:05:59;;;;;;;8.88;6.93;;;18.90;99.90;;;;;;2114552;28;20077;-69
2021/07/28 03:06:59;;;;;;;8.25;7.18;;;18.90;99.90;;;;;;2114913;28;20023;-69
2021/07/28 03:08:00;;;;;;;8.75;7.20;;;18.90;99.90;;;;;;2115306;28;20028;-69
2021/07/28 03:09:00;;;;;;;9.85;7.50;;;18.90;99.90;;;;;;2114682;28;20490;-69
2021/07/28 03:10:03;;;;;;;9.95;6.85;;;18.90;99.90;;;;;;2109201;28;20058;-69
2021/07/28 03:11:03;;;;;;;9.77;7.57;;;18.90;99.90;;;;;;2106990;28;20502;-69
2021/07/28 03:12:04;;;;;;;8.30;6.65;;;18.90;99.90;;;;;;2106704;28;20379;-69
2021/07/28 03:13:05;;;;;;;8.50;6.53;;;18.90;99.90;;;;;;2106461;28;20043;-69
2021/07/28 03:14:05;;;;;;;8.27;7.40;;;18.90;99.90;;;;;;2106783;28;20020;-69
2021/07/28 03:15:06;;;;;;;12.07;7.60;;;18.90;99.90;;;;;;2106993;28;20089;-70
2021/07/28 03:16:08;;;;;;;8.43;7.53;;;18.80;99.90;;;;;;2106853;28;20023;-69
2021/07/28 03:17:09;;;;;;;10.02;7.65;;;18.80;99.90;;;;;;2106825;28;20054;-69
2021/07/28 03:18:09;;;;;;;8.43;7.35;;;18.80;99.90;;;;;;2106837;28;20028;-69
2021/07/28 03:19:10;;;;;;;14.45;7.70;;;18.80;99.90;;;;;;2107171;28;20054;-69
2021/07/28 03:20:11;;;;;;;12.60;7.63;;;18.80;99.90;;;;;;2108353;28;20032;-69
2021/07/28 03:21:12;;;;;;;7.72;6.88;;;18.80;99.90;;;;;;2115110;28;20019;-69
2021/07/28 03:22:12;;;;;;;10.00;7.45;;;18.80;99.90;;;;;;2115179;28;20022;-69
2021/07/28 03:23:13;;;;;;;7.43;6.72;;;18.80;99.90;;;;;;2114765;28;20055;-69
2021/07/28 03:24:13;;;;;;;9.32;7.70;;;18.80;99.90;;;;;;2114403;28;20549;-69
2021/07/28 03:25:14;;;;;;;10.85;7.70;;;18.80;99.90;;;;;;2114250;28;20050;-69
2021/07/28 03:26:14;;;;;;;9.73;7.55;;;18.80;99.90;;;;;;2114687;28;20031;-69
2021/07/28 03:27:15;;;;;;;8.70;7.00;;;18.80;99.90;;;;;;2115177;28;20539;-69
2021/07/28 03:28:15;;;;;;;14.07;8.35;;;18.80;99.90;;;;;;2115292;28;20035;-69
2021/07/28 03:29:16;;;;;;;10.27;7.25;;;18.90;99.90;;;;;;2115251;28;20024;-69
2021/07/28 03:30:16;;;;;;;9.50;8.07;;;18.90;99.90;;;;;;2108202;28;20032;-69
2021/07/28 03:31:17;;;;;;;9.23;7.88;;;18.90;99.90;;;;;;2106721;28;20515;-69
2021/07/28 03:32:18;;;;;;;9.02;7.80;;;18.90;99.90;;;;;;2106215;28;20055;-69
2021/07/28 03:33:19;;;;;;;10.55;7.78;;;18.90;99.90;;;;;;2105384;28;20107;-69
2021/07/28 03:34:19;;;;;;;10.52;7.97;;;18.90;99.90;;;;;;2106261;28;20081;-69
2021/07/28 03:35:20;;;;;;;9.90;7.18;;;18.90;99.90;;;;;;2113260;28;20367;-69
2021/07/28 03:36:20;;;;;;;14.45;7.75;;;18.90;99.90;;;;;;2115059;28;20011;-69
2021/07/28 03:37:21;;;;;;;8.65;7.68;;;18.90;99.90;;;;;;2115271;28;20023;-69
2021/07/28 03:38:21;;;;;;;10.40;7.97;;;18.90;99.90;;;;;;2115255;28;20015;-69
2021/07/28 03:39:22;;;;;;;12.00;8.13;;;18.90;99.90;;;;;;2115174;28;20105;-69
2021/07/28 03:40:23;;;;;;;8.65;7.50;;;18.90;99.90;;;;;;2107552;28;20107;-69
2021/07/28 03:41:23;;;;;;;14.18;7.63;;;18.90;99.90;;;;;;2106526;28;20020;-69
2021/07/28 03:42:24;;;;;;;9.63;7.55;;;19.00;99.90;;;;;;2106515;28;20105;-69
2021/07/28 03:43:24;;;;;;;11.30;8.18;;;18.90;99.90;;;;;;2106219;28;20085;-69
2021/07/28 03:44:25;;;;;;;9.70;7.90;;;18.90;99.90;;;;;;2106851;28;20055;-69
2021/07/28 03:45:25;;;;;;;8.02;7.22;;;18.90;99.90;;;;;;2106509;28;20364;-69
2021/07/28 03:46:26;;;;;;;11.70;8.80;;;19.00;99.90;;;;;;2106657;28;20031;-69
2021/07/28 03:47:27;;;;;;;9.35;7.03;;;18.90;99.90;;;;;;2106297;28;20116;-69
2021/07/28 03:48:30;;;;;;;10.55;8.05;;;19.00;99.90;;;;;;2106080;28;20677;-69
2021/07/28 03:49:31;;;;;;;8.32;7.45;;;19.00;99.90;;;;;;2103948;28;20040;-69
2021/07/28 03:50:31;;;;;;;8.63;7.10;;;18.90;99.90;;;;;;2109671;28;20063;-69
2021/07/28 03:51:32;;;;;;;8.55;7.70;;;19.00;99.90;;;;;;2107601;28;20468;-70
2021/07/28 03:52:32;;;;;;;8.32;7.53;;;18.90;99.90;;;;;;2106718;28;20493;-70
2021/07/28 03:53:35;;;;;;;8.57;7.07;;;19.00;99.90;;;;;;2106014;28;20047;-69
2021/07/28 03:54:35;;;;;;;11.20;7.85;;;18.90;99.90;;;;;;2106730;28;20027;-69
2021/07/28 03:55:36;;;;;;;8.75;7.85;;;19.00;99.90;;;;;;2106328;28;20055;-69
2021/07/28 03:56:36;;;;;;;9.75;7.68;;;18.90;99.90;;;;;;2106516;28;20024;-69
2021/07/28 03:57:37;;;;;;;8.38;7.40;;;18.90;99.90;;;;;;2104433;28;20020;-69
2021/07/28 03:58:37;;;;;;;9.43;8.10;;;18.90;99.90;;;;;;2108716;28;20015;-69
2021/07/28 03:59:39;;;;;;;9.18;7.88;;;18.90;99.90;;;;;;2111238;28;20027;-69
2021/07/28 04:00:39;;;;;;;9.18;8.27;;;18.90;99.90;;;;;;2107823;28;20050;-69
2021/07/28 04:01:40;;;;;;;9.85;7.80;;;18.90;99.90;;;;;;2105779;28;20031;-69
2021/07/28 04:02:40;;;;;;;11.43;8.65;;;18.90;99.90;;;;;;2105775;28;20024;-69
2021/07/28 04:03:41;;;;;;;9.75;8.35;;;18.90;99.90;;;;;;2104713;28;20984;-69
2021/07/28 04:04:41;;;;;;;15.02;7.22;;;18.90;99.90;;;;;;2107089;28;20478;-69
2021/07/28 04:05:42;;;;;;;9.02;8.13;;;18.90;99.90;;;;;;2109571;28;20046;-69
2021/07/28 04:06:42;;;;;;;9.20;7.72;;;18.90;99.90;;;;;;2109109;28;20030;-69
2021/07/28 04:07:45;;;;;;;9.07;8.18;;;18.90;99.90;;;;;;2112976;28;20095;-69
2021/07/28 04:08:46;;;;;;;13.02;8.18;;;18.90;99.90;;;;;;2109877;28;20016;-69
2021/07/28 04:09:46;;;;;;;10.60;8.27;;;18.90;99.90;;;;;;2106132;28;20040;-69
2021/07/28 04:10:48;;;;;;;10.45;7.90;;;18.90;99.90;;;;;;2102444;28;20443;-69
2021/07/28 04:11:48;;;;;;;8.75;7.85;;;18.80;99.90;;;;;;2108317;28;20011;-69
2021/07/28 04:12:49;;;;;;;9.15;7.47;;;18.90;99.90;;;;;;2108226;28;20020;-69
2021/07/28 04:13:49;;;;;;;7.82;7.03;;;18.90;99.90;;;;;;2109395;27;20103;-69
2021/07/28 04:14:50;;;;;;;9.77;8.45;;;18.90;99.90;;;;;;2106437;28;20059;-69
2021/07/28 04:15:51;;;;;;;9.63;7.50;;;18.90;99.90;;;;;;2106440;28;20020;-69
2021/07/28 04:16:51;;;;;;;7.32;6.60;;;18.80;99.90;;;;;;2106374;28;20021;-69
2021/07/28 04:17:52;;;;;;;9.27;7.10;;;18.90;99.90;;;;;;2105655;28;20036;-69
2021/07/28 04:18:52;;;;;;;11.57;7.82;;;18.90;99.90;;;;;;2105689;28;20383;-69
2021/07/28 04:19:53;;;;;;;8.40;7.57;;;18.90;99.90;;;;;;2106272;28;20023;-69
2021/07/28 04:20:53;;;;;;;9.23;7.63;;;18.90;99.90;;;;;;2102093;28;20028;-69
2021/07/28 04:21:54;;;;;;;8.07;7.28;;;18.90;99.90;;;;;;2106982;28;20383;-69
2021/07/28 04:22:54;;;;;;;10.68;7.82;;;18.90;99.90;;;;;;2103527;28;20020;-69
2021/07/28 04:23:55;;;;;;;14.00;8.13;;;18.80;99.90;;;;;;2110341;28;20028;-69
2021/07/28 04:24:55;;;;;;;8.90;8.00;;;18.90;99.90;;;;;;2109437;28;20476;-69
2021/07/28 04:26:00;;;;;;;8.57;7.68;;;18.90;99.90;;;;;;2114882;28;20024;-69
2021/07/28 04:27:00;;;;;;;12.43;7.72;;;18.90;99.90;;;;;;2109226;28;20036;-69
2021/07/28 04:28:01;;;;;;;11.07;7.97;;;18.90;99.90;;;;;;2106631;28;20020;-69
2021/07/28 04:29:01;;;;;;;11.57;7.72;;;18.90;99.90;;;;;;2106388;28;20103;-69
2021/07/28 04:30:05;;;;;;;10.60;8.43;;;18.90;99.90;;;;;;2106131;28;20027;-69
2021/07/28 04:31:05;;;;;;;12.57;7.63;;;18.80;99.90;;;;;;2106159;28;20016;-69
2021/07/28 04:32:06;;;;;;;9.32;7.38;;;18.90;99.90;;;;;;2112931;28;20824;-69
2021/07/28 04:33:07;;;;;;;8.65;7.13;;;18.80;99.90;;;;;;2106908;28;20020;-77
2021/07/28 04:34:07;;;;;;;11.20;7.65;;;18.80;99.90;;;;;;2106415;28;20024;-70
2021/07/28 04:35:08;;;;;;;10.57;8.05;;;18.80;99.90;;;;;;2111189;28;20015;-69
2021/07/28 04:36:09;;;;;;;11.50;8.93;;;18.90;99.90;;;;;;2106372;28;20016;-69
2021/07/28 04:37:09;;;;;;;8.93;7.53;;;18.80;99.90;;;;;;2106154;28;20086;-69
2021/07/28 04:38:10;;;;;;;9.25;8.32;;;18.90;99.90;;;;;;2106064;28;20024;-69
2021/07/28 04:39:10;;;;;;;11.73;8.02;;;18.90;99.90;;;;;;2106339;28;20039;-69
2021/07/28 04:40:12;;;;;;;9.48;7.78;;;18.90;99.90;;;;;;2105877;28;20030;-69
2021/07/28 04:41:12;;;;;;;10.57;7.85;;;18.90;99.90;;;;;;2103728;28;20036;-69
2021/07/28 04:42:13;;;;;;;10.13;8.02;;;18.90;99.90;;;;;;2101140;28;20028;-69
2021/07/28 04:43:13;;;;;;;10.55;8.40;;;18.90;99.90;;;;;;2104578;28;20486;-69
2021/07/28 04:44:14;;;;;;;10.52;8.40;;;18.90;99.90;;;;;;2105545;28;20036;-68
2021/07/28 04:45:14;;;;;;;12.05;8.25;;;19.00;99.90;;;;;;2099707;28;20024;-69
2021/07/28 04:46:16;;;;;;;10.95;8.23;;;19.00;99.90;;;;;;2102260;28;20148;-69
2021/07/28 04:47:17;;;;;;;8.95;8.05;;;19.00;99.90;;;;;;2100554;28;20035;-69
2021/07/28 04:48:17;;;;;;;9.15;7.60;;;19.00;99.90;;;;;;2101628;28;20028;-69
2021/07/28 04:49:18;;;;;;;9.10;7.35;;;19.00;99.90;;;;;;2102626;28;20039;-69
2021/07/28 04:50:19;;;;;;;8.20;7.50;;;19.10;99.90;;;;;;2100045;28;20490;-69
2021/07/28 04:51:19;;;;;;;8.80;7.93;;;19.10;99.90;;;;;;2106781;28;20020;-69
2021/07/28 04:52:24;;;;;;;11.60;8.20;;;19.10;99.90;;;;;;2103517;28;20103;-69
2021/07/28 04:53:28;;;;;;;10.80;7.78;;;19.10;99.90;;;;;;2107588;28;20022;-69
2021/07/28 04:54:29;;;;;;;8.52;7.72;;;19.10;99.90;;;;;;2102613;28;20798;-69
2021/07/28 04:55:29;;;;;;;13.60;8.45;;;19.10;99.90;;;;;;2102221;28;20368;-69
2021/07/28 04:56:30;;;;;;;10.38;7.72;;;19.10;99.90;;;;;;2105558;28;20017;-69
2021/07/28 04:57:31;;;;;;;10.68;7.60;;;19.10;99.90;;;;;;2107920;28;20044;-69
2021/07/28 04:58:31;;;;;;;16.08;7.78;;;19.10;99.90;;;;;;2107283;28;20069;-69
2021/07/28 04:59:32;;;;;;;8.70;7.72;;;19.10;99.90;;;;;;2107826;28;20038;-69
2021/07/28 05:00:32;;;;;;;10.90;7.47;;;19.10;99.90;;;;;;2107110;28;20526;-69
2021/07/28 05:01:33;;;;;;;9.93;7.93;;;19.10;99.90;;;;;;2107666;28;20094;-69
2021/07/28 05:02:33;;;;;;;9.07;7.47;;;19.20;99.90;;;;;;2107308;28;20102;-68
2021/07/28 05:03:34;;;;;;;9.02;8.23;;;19.20;99.90;;;;;;2108167;28;20028;-69
2021/07/28 05:04:34;;;;;;;8.57;7.63;;;19.10;99.90;;;;;;2107986;28;20797;-69
2021/07/28 05:05:35;;;;;;;10.68;7.93;;;19.20;99.90;;;;;;2106078;28;20008;-69
2021/07/28 05:06:36;;;;;;;8.80;8.00;;;19.20;99.90;;;;;;2107473;28;20019;-70
2021/07/28 05:07:36;;;;;;;10.13;8.30;;;19.20;99.90;;;;;;2108092;28;20016;-69
2021/07/28 05:08:37;;;;;;;11.90;8.27;;;19.20;99.90;;;;;;2107768;28;20011;-69
2021/07/28 05:09:38;;;;;;;8.30;7.43;;;19.20;99.90;;;;;;2105579;28;20031;-69
2021/07/28 05:10:39;;;;;;;9.13;8.23;;;19.20;99.90;;;;;;2103943;28;20046;-69
2021/07/28 05:11:40;;;;;;;9.27;8.48;;;19.20;99.90;;;;;;2102661;28;20016;-68
2021/07/28 05:12:40;;;;;;;11.98;7.93;;;19.20;99.90;;;;;;2099940;28;20023;-68
2021/07/28 05:13:41;;;;;;;8.73;7.68;;;19.20;99.90;;;;;;2103195;28;20044;-68
2021/07/28 05:14:41;;;;;;;8.82;7.95;;;19.20;99.90;;;;;;2105802;28;20040;-68
2021/07/28 05:15:42;;;;;;;8.23;7.10;;;19.20;99.90;;;;;;2103234;28;20028;-69
2021/07/28 05:16:43;;;;;;;8.43;7.60;;;19.30;99.90;;;;;;2103521;28;20032;-68
2021/07/28 05:17:43;;;;;;;8.35;7.55;;;19.30;99.90;;;;;;2101858;28;20055;-69
2021/07/28 05:18:44;;;;;;;11.82;8.68;;;19.30;99.90;;;;;;2103361;28;20048;-69
2021/07/28 05:19:44;;;;;;;9.05;8.15;;;19.30;99.90;;;;;;2100618;28;20024;-69